sensor_id;sensor_type;location;lat;lon;timestamp;temperature;humidity
70214;DHT22;60138;55.808;37.078;2022-08-03T00:00:12;17.31;57.45
70214;DHT22;60138;55.808;37.078;2022-08-03T00:02:38;17.29;57.60
70214;DHT22;60138;55.808;37.078;2022-08-03T00:05:04;17.26;57.79
70214;DHT22;60138;55.808;37.078;2022-08-03T00:07:30;17.21;57.83
70214;DHT22;60138;55.808;37.078;2022-08-03T00:09:56;17.15;58.23
70214;DHT22;60138;55.808;37.078;2022-08-03T00:12:22;17.13;58.30
70214;DHT22;60138;55.808;37.078;2022-08-03T00:14:47;17.13;58.30
70214;DHT22;60138;55.808;37.078;2022-08-03T00:17:13;17.13;58.43
70214;DHT22;60138;55.808;37.078;2022-08-03T00:19:38;17.10;58.47
70214;DHT22;60138;55.808;37.078;2022-08-03T00:22:04;17.08;58.74
70214;DHT22;60138;55.808;37.078;2022-08-03T00:24:30;17.07;58.74
70214;DHT22;60138;55.808;37.078;2022-08-03T00:26:55;17.07;58.48
70214;DHT22;60138;55.808;37.078;2022-08-03T00:29:21;17.05;58.58
70214;DHT22;60138;55.808;37.078;2022-08-03T00:31:46;17.03;58.59
70214;DHT22;60138;55.808;37.078;2022-08-03T00:34:13;16.98;58.83
70214;DHT22;60138;55.808;37.078;2022-08-03T00:36:39;16.95;58.99
70214;DHT22;60138;55.808;37.078;2022-08-03T00:39:04;16.93;59.32
70214;DHT22;60138;55.808;37.078;2022-08-03T00:41:30;16.93;59.55
70214;DHT22;60138;55.808;37.078;2022-08-03T00:43:56;16.90;59.02
70214;DHT22;60138;55.808;37.078;2022-08-03T00:46:22;16.87;59.33
70214;DHT22;60138;55.808;37.078;2022-08-03T00:48:48;16.86;59.61
70214;DHT22;60138;55.808;37.078;2022-08-03T00:51:14;16.81;59.44
70214;DHT22;60138;55.808;37.078;2022-08-03T00:53:40;16.79;59.70
70214;DHT22;60138;55.808;37.078;2022-08-03T00:56:06;16.77;59.90
70214;DHT22;60138;55.808;37.078;2022-08-03T00:58:31;16.75;59.89
70214;DHT22;60138;55.808;37.078;2022-08-03T01:00:57;16.73;59.96
70214;DHT22;60138;55.808;37.078;2022-08-03T01:03:23;16.69;59.96
70214;DHT22;60138;55.808;37.078;2022-08-03T01:06:06;16.64;60.22
70214;DHT22;60138;55.808;37.078;2022-08-03T01:08:53;16.61;60.80
70214;DHT22;60138;55.808;37.078;2022-08-03T01:14:09;16.57;60.36
70214;DHT22;60138;55.808;37.078;2022-08-03T01:16:51;16.52;60.96
70214;DHT22;60138;55.808;37.078;2022-08-03T01:19:45;16.51;61.63
70214;DHT22;60138;55.808;37.078;2022-08-03T01:22:56;16.48;60.83
70214;DHT22;60138;55.808;37.078;2022-08-03T01:30:52;16.35;61.34
70214;DHT22;60138;55.808;37.078;2022-08-03T01:33:22;16.32;61.05
70214;DHT22;60138;55.808;37.078;2022-08-03T01:36:01;16.30;62.03
70214;DHT22;60138;55.808;37.078;2022-08-03T01:38:36;16.27;61.38
70214;DHT22;60138;55.808;37.078;2022-08-03T01:41:06;16.24;61.38
70214;DHT22;60138;55.808;37.078;2022-08-03T01:43:32;16.20;61.42
70214;DHT22;60138;55.808;37.078;2022-08-03T01:46:01;16.19;61.33
70214;DHT22;60138;55.808;37.078;2022-08-03T01:48:28;16.18;61.28
70214;DHT22;60138;55.808;37.078;2022-08-03T01:50:55;16.16;61.47
70214;DHT22;60138;55.808;37.078;2022-08-03T01:53:21;16.14;61.39
70214;DHT22;60138;55.808;37.078;2022-08-03T01:55:50;16.12;61.60
70214;DHT22;60138;55.808;37.078;2022-08-03T01:58:17;16.12;61.94
70214;DHT22;60138;55.808;37.078;2022-08-03T02:00:45;16.11;61.79
70214;DHT22;60138;55.808;37.078;2022-08-03T02:03:12;16.10;61.83
70214;DHT22;60138;55.808;37.078;2022-08-03T02:05:39;16.08;61.85
70214;DHT22;60138;55.808;37.078;2022-08-03T02:08:07;16.10;62.07
70214;DHT22;60138;55.808;37.078;2022-08-03T02:10:34;16.07;62.04
70214;DHT22;60138;55.808;37.078;2022-08-03T02:13:01;16.08;62.04
70214;DHT22;60138;55.808;37.078;2022-08-03T02:15:29;16.10;62.19
70214;DHT22;60138;55.808;37.078;2022-08-03T02:17:56;16.13;62.26
70214;DHT22;60138;55.808;37.078;2022-08-03T02:20:23;16.15;62.15
70214;DHT22;60138;55.808;37.078;2022-08-03T02:22:49;16.18;62.02
70214;DHT22;60138;55.808;37.078;2022-08-03T02:25:15;16.22;62.58
70214;DHT22;60138;55.808;37.078;2022-08-03T02:27:50;16.28;62.69
70214;DHT22;60138;55.808;37.078;2022-08-03T02:30:17;16.30;62.04
70214;DHT22;60138;55.808;37.078;2022-08-03T02:32:49;16.31;62.29
70214;DHT22;60138;55.808;37.078;2022-08-03T02:35:18;16.33;62.08
70214;DHT22;60138;55.808;37.078;2022-08-03T02:37:51;16.37;62.34
70214;DHT22;60138;55.808;37.078;2022-08-03T02:40:19;16.40;62.11
70214;DHT22;60138;55.808;37.078;2022-08-03T02:42:46;16.43;61.88
70214;DHT22;60138;55.808;37.078;2022-08-03T02:45:15;16.49;62.05
70214;DHT22;60138;55.808;37.078;2022-08-03T02:47:43;16.51;62.37
70214;DHT22;60138;55.808;37.078;2022-08-03T02:50:11;16.55;62.41
70214;DHT22;60138;55.808;37.078;2022-08-03T02:52:37;16.57;62.37
70214;DHT22;60138;55.808;37.078;2022-08-03T02:55:05;16.59;62.60
70214;DHT22;60138;55.808;37.078;2022-08-03T02:57:33;16.64;62.50
70214;DHT22;60138;55.808;37.078;2022-08-03T03:00:00;16.70;62.42
70214;DHT22;60138;55.808;37.078;2022-08-03T03:02:27;16.74;62.41
70214;DHT22;60138;55.808;37.078;2022-08-03T03:04:54;16.77;62.60
70214;DHT22;60138;55.808;37.078;2022-08-03T03:07:21;16.80;62.57
70214;DHT22;60138;55.808;37.078;2022-08-03T03:09:47;16.84;62.57
70214;DHT22;60138;55.808;37.078;2022-08-03T03:12:14;16.87;62.40
70214;DHT22;60138;55.808;37.078;2022-08-03T03:14:40;16.91;62.21
70214;DHT22;60138;55.808;37.078;2022-08-03T03:17:07;16.95;62.17
70214;DHT22;60138;55.808;37.078;2022-08-03T03:19:34;16.99;62.09
70214;DHT22;60138;55.808;37.078;2022-08-03T03:22:01;17.04;62.18
70214;DHT22;60138;55.808;37.078;2022-08-03T03:24:28;17.07;62.66
70214;DHT22;60138;55.808;37.078;2022-08-03T03:26:55;17.09;62.79
70214;DHT22;60138;55.808;37.078;2022-08-03T03:29:21;17.13;62.73
70214;DHT22;60138;55.808;37.078;2022-08-03T03:31:47;17.15;62.79
70214;DHT22;60138;55.808;37.078;2022-08-03T03:34:13;17.16;62.52
70214;DHT22;60138;55.808;37.078;2022-08-03T03:36:39;17.19;61.93
70214;DHT22;60138;55.808;37.078;2022-08-03T03:39:05;17.22;62.07
70214;DHT22;60138;55.808;37.078;2022-08-03T03:41:31;17.26;62.08
70214;DHT22;60138;55.808;37.078;2022-08-03T03:43:57;17.31;62.02
70214;DHT22;60138;55.808;37.078;2022-08-03T03:46:23;17.36;62.95
70214;DHT22;60138;55.808;37.078;2022-08-03T03:48:49;17.37;62.44
70214;DHT22;60138;55.808;37.078;2022-08-03T03:51:15;17.45;62.37
70214;DHT22;60138;55.808;37.078;2022-08-03T03:53:56;17.50;62.82
70214;DHT22;60138;55.808;37.078;2022-08-03T03:56:22;17.54;62.21
70214;DHT22;60138;55.808;37.078;2022-08-03T03:58:48;17.59;62.06
70214;DHT22;60138;55.808;37.078;2022-08-03T04:01:13;17.65;61.76
70214;DHT22;60138;55.808;37.078;2022-08-03T04:03:39;17.70;61.79
70214;DHT22;60138;55.808;37.078;2022-08-03T04:06:05;17.77;61.09
70214;DHT22;60138;55.808;37.078;2022-08-03T04:08:30;17.82;61.67
70214;DHT22;60138;55.808;37.078;2022-08-03T04:11:22;17.90;61.91
70214;DHT22;60138;55.808;37.078;2022-08-03T04:16:18;18.00;61.99
70214;DHT22;60138;55.808;37.078;2022-08-03T04:18:48;18.07;61.54
70214;DHT22;60138;55.808;37.078;2022-08-03T04:21:17;18.13;62.20
70214;DHT22;60138;55.808;37.078;2022-08-03T04:23:46;18.21;61.16
70214;DHT22;60138;55.808;37.078;2022-08-03T04:26:15;18.28;60.60
70214;DHT22;60138;55.808;37.078;2022-08-03T04:28:43;18.39;60.83
70214;DHT22;60138;55.808;37.078;2022-08-03T04:31:11;18.48;60.96
70214;DHT22;60138;55.808;37.078;2022-08-03T04:33:38;18.55;60.77
70214;DHT22;60138;55.808;37.078;2022-08-03T04:36:06;18.64;61.16
70214;DHT22;60138;55.808;37.078;2022-08-03T04:38:39;18.73;61.16
70214;DHT22;60138;55.808;37.078;2022-08-03T04:41:09;18.82;59.85
70214;DHT22;60138;55.808;37.078;2022-08-03T04:43:37;18.95;59.83
70214;DHT22;60138;55.808;37.078;2022-08-03T04:46:03;19.05;60.25
70214;DHT22;60138;55.808;37.078;2022-08-03T04:48:31;19.11;60.25
70214;DHT22;60138;55.808;37.078;2022-08-03T04:50:57;19.15;60.10
70214;DHT22;60138;55.808;37.078;2022-08-03T04:53:23;19.24;59.84
70214;DHT22;60138;55.808;37.078;2022-08-03T04:55:49;19.30;59.82
70214;DHT22;60138;55.808;37.078;2022-08-03T04:58:14;19.38;59.85
70214;DHT22;60138;55.808;37.078;2022-08-03T05:00:40;19.40;59.53
70214;DHT22;60138;55.808;37.078;2022-08-03T05:03:05;19.44;59.89
70214;DHT22;60138;55.808;37.078;2022-08-03T05:05:31;19.52;59.96
70214;DHT22;60138;55.808;37.078;2022-08-03T05:07:57;19.56;59.50
70214;DHT22;60138;55.808;37.078;2022-08-03T05:10:22;19.59;59.48
70214;DHT22;60138;55.808;37.078;2022-08-03T05:12:48;19.62;59.61
70214;DHT22;60138;55.808;37.078;2022-08-03T05:15:14;19.63;60.54
70214;DHT22;60138;55.808;37.078;2022-08-03T05:17:40;19.72;60.70
70214;DHT22;60138;55.808;37.078;2022-08-03T05:20:06;19.81;61.18
70214;DHT22;60138;55.808;37.078;2022-08-03T05:22:32;19.97;60.84
70214;DHT22;60138;55.808;37.078;2022-08-03T05:24:58;20.03;60.39
70214;DHT22;60138;55.808;37.078;2022-08-03T05:27:24;20.09;60.66
70214;DHT22;60138;55.808;37.078;2022-08-03T05:29:51;20.21;57.74
70214;DHT22;60138;55.808;37.078;2022-08-03T05:32:17;20.34;58.79
70214;DHT22;60138;55.808;37.078;2022-08-03T05:34:43;20.47;59.50
70214;DHT22;60138;55.808;37.078;2022-08-03T05:37:09;20.51;59.09
70214;DHT22;60138;55.808;37.078;2022-08-03T05:39:35;20.58;58.79
70214;DHT22;60138;55.808;37.078;2022-08-03T05:42:01;20.69;59.13
70214;DHT22;60138;55.808;37.078;2022-08-03T05:44:27;20.79;59.19
70214;DHT22;60138;55.808;37.078;2022-08-03T05:46:53;20.98;58.18
70214;DHT22;60138;55.808;37.078;2022-08-03T05:49:19;21.10;59.12
70214;DHT22;60138;55.808;37.078;2022-08-03T05:51:45;21.28;59.93
70214;DHT22;60138;55.808;37.078;2022-08-03T05:54:11;21.48;59.19
70214;DHT22;60138;55.808;37.078;2022-08-03T05:56:37;21.69;58.15
70214;DHT22;60138;55.808;37.078;2022-08-03T05:59:03;21.91;57.52
70214;DHT22;60138;55.808;37.078;2022-08-03T06:01:29;22.08;56.48
70214;DHT22;60138;55.808;37.078;2022-08-03T06:03:54;22.22;55.87
70214;DHT22;60138;55.808;37.078;2022-08-03T06:06:20;22.39;55.80
70214;DHT22;60138;55.808;37.078;2022-08-03T06:08:45;22.60;55.13
70214;DHT22;60138;55.808;37.078;2022-08-03T06:11:11;22.75;54.27
70214;DHT22;60138;55.808;37.078;2022-08-03T06:13:38;22.88;53.85
70214;DHT22;60138;55.808;37.078;2022-08-03T06:16:04;22.98;53.26
70214;DHT22;60138;55.808;37.078;2022-08-03T06:18:30;23.07;53.30
70214;DHT22;60138;55.808;37.078;2022-08-03T06:20:56;23.13;52.83
70214;DHT22;60138;55.808;37.078;2022-08-03T06:23:21;23.21;53.11
70214;DHT22;60138;55.808;37.078;2022-08-03T06:25:47;23.28;52.96
70214;DHT22;60138;55.808;37.078;2022-08-03T06:28:13;23.35;52.37
70214;DHT22;60138;55.808;37.078;2022-08-03T06:30:40;23.46;52.38
70214;DHT22;60138;55.808;37.078;2022-08-03T06:33:05;23.51;52.30
70214;DHT22;60138;55.808;37.078;2022-08-03T06:35:32;23.64;52.16
70214;DHT22;60138;55.808;37.078;2022-08-03T06:37:58;23.70;52.30
70214;DHT22;60138;55.808;37.078;2022-08-03T06:40:24;23.75;52.46
70214;DHT22;60138;55.808;37.078;2022-08-03T06:42:50;23.83;51.46
70214;DHT22;60138;55.808;37.078;2022-08-03T06:45:15;23.89;50.68
70214;DHT22;60138;55.808;37.078;2022-08-03T06:47:41;24.00;51.11
70214;DHT22;60138;55.808;37.078;2022-08-03T06:50:07;24.10;50.75
70214;DHT22;60138;55.808;37.078;2022-08-03T06:52:33;24.16;50.59
70214;DHT22;60138;55.808;37.078;2022-08-03T06:54:59;24.25;50.47
70214;DHT22;60138;55.808;37.078;2022-08-03T06:57:25;24.31;50.13
70214;DHT22;60138;55.808;37.078;2022-08-03T06:59:50;24.40;47.89
70214;DHT22;60138;55.808;37.078;2022-08-03T07:02:16;24.49;49.54
70214;DHT22;60138;55.808;37.078;2022-08-03T07:04:42;24.56;49.72
70214;DHT22;60138;55.808;37.078;2022-08-03T07:07:08;24.63;49.47
70214;DHT22;60138;55.808;37.078;2022-08-03T07:09:33;24.66;49.07
70214;DHT22;60138;55.808;37.078;2022-08-03T07:11:59;24.70;48.36
70214;DHT22;60138;55.808;37.078;2022-08-03T07:14:25;24.70;48.37
70214;DHT22;60138;55.808;37.078;2022-08-03T07:16:51;24.72;48.73
70214;DHT22;60138;55.808;37.078;2022-08-03T07:19:16;24.76;47.77
70214;DHT22;60138;55.808;37.078;2022-08-03T07:21:42;24.84;47.17
70214;DHT22;60138;55.808;37.078;2022-08-03T07:24:08;24.92;47.31
70214;DHT22;60138;55.808;37.078;2022-08-03T07:26:34;25.00;46.96
70214;DHT22;60138;55.808;37.078;2022-08-03T07:28:59;25.05;46.58
70214;DHT22;60138;55.808;37.078;2022-08-03T07:31:25;25.12;46.76
70214;DHT22;60138;55.808;37.078;2022-08-03T07:33:51;25.16;47.19
70214;DHT22;60138;55.808;37.078;2022-08-03T07:36:17;25.27;46.88
70214;DHT22;60138;55.808;37.078;2022-08-03T07:38:42;25.36;46.72
70214;DHT22;60138;55.808;37.078;2022-08-03T07:41:08;25.46;46.38
70214;DHT22;60138;55.808;37.078;2022-08-03T07:43:34;25.49;46.02
70214;DHT22;60138;55.808;37.078;2022-08-03T07:46:00;25.51;45.29
70214;DHT22;60138;55.808;37.078;2022-08-03T07:48:25;25.57;45.42
70214;DHT22;60138;55.808;37.078;2022-08-03T07:50:51;25.62;45.28
70214;DHT22;60138;55.808;37.078;2022-08-03T07:53:17;25.67;45.70
70214;DHT22;60138;55.808;37.078;2022-08-03T07:55:43;25.69;45.43
70214;DHT22;60138;55.808;37.078;2022-08-03T07:58:10;25.74;45.04
70214;DHT22;60138;55.808;37.078;2022-08-03T08:00:37;25.77;45.37
70214;DHT22;60138;55.808;37.078;2022-08-03T08:03:03;25.79;45.06
70214;DHT22;60138;55.808;37.078;2022-08-03T08:05:29;25.78;44.58
70214;DHT22;60138;55.808;37.078;2022-08-03T08:07:55;25.79;45.05
70214;DHT22;60138;55.808;37.078;2022-08-03T08:10:21;25.81;45.06
70214;DHT22;60138;55.808;37.078;2022-08-03T08:12:47;25.88;44.69
70214;DHT22;60138;55.808;37.078;2022-08-03T08:15:13;25.90;45.71
70214;DHT22;60138;55.808;37.078;2022-08-03T08:17:44;25.90;43.70
70214;DHT22;60138;55.808;37.078;2022-08-03T08:20:14;25.91;44.39
70214;DHT22;60138;55.808;37.078;2022-08-03T08:22:41;25.99;43.89
70214;DHT22;60138;55.808;37.078;2022-08-03T08:25:07;26.02;43.48
70214;DHT22;60138;55.808;37.078;2022-08-03T08:27:32;26.11;43.25
70214;DHT22;60138;55.808;37.078;2022-08-03T08:29:58;26.23;43.87
70214;DHT22;60138;55.808;37.078;2022-08-03T08:32:24;26.35;43.66
70214;DHT22;60138;55.808;37.078;2022-08-03T08:34:49;26.47;43.40
70214;DHT22;60138;55.808;37.078;2022-08-03T08:37:15;26.67;43.51
70214;DHT22;60138;55.808;37.078;2022-08-03T08:39:41;26.83;43.05
70214;DHT22;60138;55.808;37.078;2022-08-03T08:42:06;26.93;42.62
70214;DHT22;60138;55.808;37.078;2022-08-03T08:44:32;27.01;42.68
70214;DHT22;60138;55.808;37.078;2022-08-03T08:46:58;27.11;42.61
70214;DHT22;60138;55.808;37.078;2022-08-03T08:49:27;27.23;42.41
70214;DHT22;60138;55.808;37.078;2022-08-03T08:51:55;27.38;40.80
70214;DHT22;60138;55.808;37.078;2022-08-03T08:54:22;27.46;41.88
70214;DHT22;60138;55.808;37.078;2022-08-03T08:56:49;27.54;41.05
70214;DHT22;60138;55.808;37.078;2022-08-03T08:59:16;27.55;41.81
70214;DHT22;60138;55.808;37.078;2022-08-03T09:01:42;27.61;40.87
70214;DHT22;60138;55.808;37.078;2022-08-03T09:04:08;27.55;40.77
70214;DHT22;60138;55.808;37.078;2022-08-03T09:06:34;27.54;41.01
70214;DHT22;60138;55.808;37.078;2022-08-03T09:09:00;27.49;41.34
70214;DHT22;60138;55.808;37.078;2022-08-03T09:11:26;27.44;41.11
70214;DHT22;60138;55.808;37.078;2022-08-03T09:13:51;27.42;40.80
70214;DHT22;60138;55.808;37.078;2022-08-03T09:16:20;27.40;40.99
70214;DHT22;60138;55.808;37.078;2022-08-03T09:18:53;27.43;40.65
70214;DHT22;60138;55.808;37.078;2022-08-03T09:21:23;27.49;38.68
70214;DHT22;60138;55.808;37.078;2022-08-03T09:23:54;27.59;40.48
70214;DHT22;60138;55.808;37.078;2022-08-03T09:26:26;27.68;39.77
70214;DHT22;60138;55.808;37.078;2022-08-03T09:29:00;27.79;40.13
70214;DHT22;60138;55.808;37.078;2022-08-03T09:31:31;27.75;39.46
70214;DHT22;60138;55.808;37.078;2022-08-03T09:33:59;27.70;39.70
70214;DHT22;60138;55.808;37.078;2022-08-03T09:36:41;27.63;37.66
70214;DHT22;60138;55.808;37.078;2022-08-03T09:39:10;27.58;39.64
70214;DHT22;60138;55.808;37.078;2022-08-03T09:41:41;27.60;39.74
70214;DHT22;60138;55.808;37.078;2022-08-03T09:44:08;27.73;39.30
70214;DHT22;60138;55.808;37.078;2022-08-03T09:46:50;27.99;37.84
70214;DHT22;60138;55.808;37.078;2022-08-03T09:49:17;28.24;39.29
70214;DHT22;60138;55.808;37.078;2022-08-03T09:51:43;28.42;39.21
70214;DHT22;60138;55.808;37.078;2022-08-03T09:54:08;28.56;38.65
70214;DHT22;60138;55.808;37.078;2022-08-03T09:59:03;28.93;38.24
70214;DHT22;60138;55.808;37.078;2022-08-03T10:01:33;29.09;37.81
70214;DHT22;60138;55.808;37.078;2022-08-03T10:03:59;29.20;38.05
70214;DHT22;60138;55.808;37.078;2022-08-03T10:06:25;29.27;37.73
70214;DHT22;60138;55.808;37.078;2022-08-03T10:09:14;29.31;37.77
70214;DHT22;60138;55.808;37.078;2022-08-03T10:11:41;29.37;38.43
70214;DHT22;60138;55.808;37.078;2022-08-03T10:14:10;29.41;37.88
70214;DHT22;60138;55.808;37.078;2022-08-03T10:16:39;29.49;37.24
70214;DHT22;60138;55.808;37.078;2022-08-03T10:19:06;29.48;36.69
70214;DHT22;60138;55.808;37.078;2022-08-03T10:21:35;29.38;37.13
70214;DHT22;60138;55.808;37.078;2022-08-03T10:24:06;29.33;37.43
70214;DHT22;60138;55.808;37.078;2022-08-03T10:26:34;29.34;37.96
70214;DHT22;60138;55.808;37.078;2022-08-03T10:29:03;29.41;37.20
70214;DHT22;60138;55.808;37.078;2022-08-03T10:31:40;29.49;36.98
70214;DHT22;60138;55.808;37.078;2022-08-03T10:34:22;29.62;37.49
70214;DHT22;60138;55.808;37.078;2022-08-03T10:36:49;29.78;37.69
70214;DHT22;60138;55.808;37.078;2022-08-03T10:39:18;29.90;37.49
70214;DHT22;60138;55.808;37.078;2022-08-03T10:41:47;29.94;37.25
70214;DHT22;60138;55.808;37.078;2022-08-03T10:44:17;30.02;36.94
70214;DHT22;60138;55.808;37.078;2022-08-03T10:46:44;30.08;36.72
70214;DHT22;60138;55.808;37.078;2022-08-03T10:49:15;30.19;36.43
70214;DHT22;60138;55.808;37.078;2022-08-03T10:51:44;30.32;36.95
70214;DHT22;60138;55.808;37.078;2022-08-03T10:58:12;30.67;35.38
70214;DHT22;60138;55.808;37.078;2022-08-03T11:00:17;30.81;36.10
70214;DHT22;60138;55.808;37.078;2022-08-03T11:03:02;30.91;35.15
70214;DHT22;60138;55.808;37.078;2022-08-03T11:05:30;30.96;35.89
70214;DHT22;60138;55.808;37.078;2022-08-03T11:10:47;30.95;35.37
70214;DHT22;60138;55.808;37.078;2022-08-03T11:13:19;30.97;35.22
70214;DHT22;60138;55.808;37.078;2022-08-03T11:15:47;30.96;34.25
70214;DHT22;60138;55.808;37.078;2022-08-03T11:18:16;31.01;36.07
70214;DHT22;60138;55.808;37.078;2022-08-03T11:20:52;31.15;35.97
70214;DHT22;60138;55.808;37.078;2022-08-03T11:23:42;31.30;34.86
70214;DHT22;60138;55.808;37.078;2022-08-03T11:26:15;31.42;34.67
70214;DHT22;60138;55.808;37.078;2022-08-03T11:28:43;31.54;35.38
70214;DHT22;60138;55.808;37.078;2022-08-03T11:34:09;31.81;34.28
70214;DHT22;60138;55.808;37.078;2022-08-03T11:39:43;31.92;34.71
70214;DHT22;60138;55.808;37.078;2022-08-03T11:44:55;31.95;34.63
70214;DHT22;60138;55.808;37.078;2022-08-03T11:47:21;32.02;34.74
70214;DHT22;60138;55.808;37.078;2022-08-03T11:49:49;32.81;34.53
70214;DHT22;60138;55.808;37.078;2022-08-03T11:52:16;34.48;32.44
70214;DHT22;60138;55.808;37.078;2022-08-03T11:54:43;35.62;31.16
70214;DHT22;60138;55.808;37.078;2022-08-03T11:57:09;36.34;30.55
70214;DHT22;60138;55.808;37.078;2022-08-03T11:59:36;37.17;29.42
70214;DHT22;60138;55.808;37.078;2022-08-03T12:02:19;38.11;28.07
70214;DHT22;60138;55.808;37.078;2022-08-03T12:04:57;37.07;28.34
70214;DHT22;60138;55.808;37.078;2022-08-03T12:07:24;36.10;30.08
70214;DHT22;60138;55.808;37.078;2022-08-03T12:10:11;35.10;29.04
70214;DHT22;60138;55.808;37.078;2022-08-03T12:12:37;34.73;31.24
70214;DHT22;60138;55.808;37.078;2022-08-03T12:15:04;35.93;30.71
70214;DHT22;60138;55.808;37.078;2022-08-03T12:17:38;37.58;28.76
70214;DHT22;60138;55.808;37.078;2022-08-03T12:20:07;38.94;28.47
70214;DHT22;60138;55.808;37.078;2022-08-03T12:22:34;39.97;27.36
70214;DHT22;60138;55.808;37.078;2022-08-03T12:25:00;40.99;27.78
70214;DHT22;60138;55.808;37.078;2022-08-03T12:27:26;41.91;26.07
70214;DHT22;60138;55.808;37.078;2022-08-03T12:29:54;42.74;24.98
70214;DHT22;60138;55.808;37.078;2022-08-03T12:32:20;43.49;25.01
70214;DHT22;60138;55.808;37.078;2022-08-03T12:34:47;43.81;24.70
70214;DHT22;60138;55.808;37.078;2022-08-03T12:37:13;44.09;23.56
70214;DHT22;60138;55.808;37.078;2022-08-03T12:39:49;44.26;21.11
70214;DHT22;60138;55.808;37.078;2022-08-03T12:42:15;44.59;18.37
70214;DHT22;60138;55.808;37.078;2022-08-03T12:44:41;44.36;22.85
70214;DHT22;60138;55.808;37.078;2022-08-03T12:47:06;44.12;23.70
70214;DHT22;60138;55.808;37.078;2022-08-03T12:49:46;44.66;20.69
70214;DHT22;60138;55.808;37.078;2022-08-03T12:52:12;44.71;23.06
70214;DHT22;60138;55.808;37.078;2022-08-03T12:54:38;44.79;22.69
70214;DHT22;60138;55.808;37.078;2022-08-03T12:59:31;43.93;20.92
70214;DHT22;60138;55.808;37.078;2022-08-03T13:01:57;42.46;22.61
70214;DHT22;60138;55.808;37.078;2022-08-03T13:07:00;39.95;23.19
70214;DHT22;60138;55.808;37.078;2022-08-03T13:09:26;38.95;24.43
70214;DHT22;60138;55.808;37.078;2022-08-03T13:12:06;38.02;24.01
70214;DHT22;60138;55.808;37.078;2022-08-03T13:14:31;37.45;25.33
70214;DHT22;60138;55.808;37.078;2022-08-03T13:16:57;36.87;26.11
70214;DHT22;60138;55.808;37.078;2022-08-03T13:19:23;36.30;26.48
70214;DHT22;60138;55.808;37.078;2022-08-03T13:21:48;35.74;26.65
70214;DHT22;60138;55.808;37.078;2022-08-03T13:24:14;35.35;27.59
70214;DHT22;60138;55.808;37.078;2022-08-03T13:26:40;35.00;27.91
70214;DHT22;60138;55.808;37.078;2022-08-03T13:29:06;34.71;28.49
70214;DHT22;60138;55.808;37.078;2022-08-03T13:31:32;34.51;28.96
70214;DHT22;60138;55.808;37.078;2022-08-03T13:33:57;34.63;29.16
70214;DHT22;60138;55.808;37.078;2022-08-03T13:36:23;34.41;29.00
70214;DHT22;60138;55.808;37.078;2022-08-03T13:38:49;34.20;29.15
70214;DHT22;60138;55.808;37.078;2022-08-03T13:41:14;34.06;29.26
70214;DHT22;60138;55.808;37.078;2022-08-03T13:43:40;33.93;29.48
70214;DHT22;60138;55.808;37.078;2022-08-03T13:46:05;34.24;29.56
70214;DHT22;60138;55.808;37.078;2022-08-03T13:48:31;34.17;29.52
70214;DHT22;60138;55.808;37.078;2022-08-03T13:50:57;34.82;29.96
70214;DHT22;60138;55.808;37.078;2022-08-03T13:53:23;34.83;29.47
70214;DHT22;60138;55.808;37.078;2022-08-03T13:55:48;35.20;29.54
70214;DHT22;60138;55.808;37.078;2022-08-03T13:58:14;35.41;29.13
70214;DHT22;60138;55.808;37.078;2022-08-03T14:00:40;35.57;28.91
70214;DHT22;60138;55.808;37.078;2022-08-03T14:03:06;35.87;28.97
70214;DHT22;60138;55.808;37.078;2022-08-03T14:05:32;35.82;28.59
70214;DHT22;60138;55.808;37.078;2022-08-03T14:07:57;35.58;28.51
70214;DHT22;60138;55.808;37.078;2022-08-03T14:10:23;35.49;29.10
70214;DHT22;60138;55.808;37.078;2022-08-03T14:12:49;35.47;29.03
70214;DHT22;60138;55.808;37.078;2022-08-03T14:15:14;35.69;29.19
70214;DHT22;60138;55.808;37.078;2022-08-03T14:17:40;36.61;28.58
70214;DHT22;60138;55.808;37.078;2022-08-03T14:20:07;37.20;27.87
70214;DHT22;60138;55.808;37.078;2022-08-03T14:22:33;37.18;27.39
70214;DHT22;60138;55.808;37.078;2022-08-03T14:24:58;37.03;26.14
70214;DHT22;60138;55.808;37.078;2022-08-03T14:27:24;36.68;26.47
70214;DHT22;60138;55.808;37.078;2022-08-03T14:29:50;36.61;25.53
70214;DHT22;60138;55.808;37.078;2022-08-03T14:32:15;36.25;26.20
70214;DHT22;60138;55.808;37.078;2022-08-03T14:34:41;36.17;27.33
70214;DHT22;60138;55.808;37.078;2022-08-03T14:37:07;36.84;27.34
70214;DHT22;60138;55.808;37.078;2022-08-03T14:39:32;37.37;26.92
70214;DHT22;60138;55.808;37.078;2022-08-03T14:41:58;37.58;24.79
70214;DHT22;60138;55.808;37.078;2022-08-03T14:44:24;37.77;26.68
70214;DHT22;60138;55.808;37.078;2022-08-03T14:46:49;37.96;25.66
70214;DHT22;60138;55.808;37.078;2022-08-03T14:49:15;38.02;26.06
70214;DHT22;60138;55.808;37.078;2022-08-03T14:51:40;37.89;26.01
70214;DHT22;60138;55.808;37.078;2022-08-03T14:54:06;37.70;26.00
70214;DHT22;60138;55.808;37.078;2022-08-03T14:56:32;37.23;25.75
70214;DHT22;60138;55.808;37.078;2022-08-03T14:58:57;36.74;26.64
70214;DHT22;60138;55.808;37.078;2022-08-03T15:01:23;36.25;26.58
70214;DHT22;60138;55.808;37.078;2022-08-03T15:03:49;35.70;27.20
70214;DHT22;60138;55.808;37.078;2022-08-03T15:06:14;35.29;27.66
70214;DHT22;60138;55.808;37.078;2022-08-03T15:08:40;35.06;27.96
70214;DHT22;60138;55.808;37.078;2022-08-03T15:11:06;34.76;28.32
70214;DHT22;60138;55.808;37.078;2022-08-03T15:13:31;34.38;28.70
70214;DHT22;60138;55.808;37.078;2022-08-03T15:15:57;34.08;28.87
70214;DHT22;60138;55.808;37.078;2022-08-03T15:18:23;33.80;29.11
70214;DHT22;60138;55.808;37.078;2022-08-03T15:20:48;33.55;29.31
70214;DHT22;60138;55.808;37.078;2022-08-03T15:23:15;33.30;29.37
70214;DHT22;60138;55.808;37.078;2022-08-03T15:25:42;32.99;29.87
70214;DHT22;60138;55.808;37.078;2022-08-03T15:28:08;32.86;30.22
70214;DHT22;60138;55.808;37.078;2022-08-03T15:30:34;32.71;30.47
70214;DHT22;60138;55.808;37.078;2022-08-03T15:32:59;32.57;30.73
70214;DHT22;60138;55.808;37.078;2022-08-03T15:35:25;32.53;30.69
70214;DHT22;60138;55.808;37.078;2022-08-03T15:37:50;32.40;30.74
70214;DHT22;60138;55.808;37.078;2022-08-03T15:40:16;32.23;30.93
70214;DHT22;60138;55.808;37.078;2022-08-03T15:42:42;32.03;31.13
70214;DHT22;60138;55.808;37.078;2022-08-03T15:45:08;31.85;31.38
70214;DHT22;60138;55.808;37.078;2022-08-03T15:47:33;31.64;31.71
70214;DHT22;60138;55.808;37.078;2022-08-03T15:49:59;31.43;31.99